グアム の空港の天気 - METARとTAF

グアム国際空港 ( PGUM / GUM ) - グアム ハガニア
飛行場実況気象(Metar)
観測時間10/16 16:19 ChST (10/16 06:19 UTC)
風向・風速北東 3m/s
視程10km以上
天気現象
少しの雲 雲底高度 460m
全天の8割程度の雲 雲底高度 700m
気温27.8℃
湿度94%
気圧1010hPa
METARPGUM 160619Z 05006KT 10SM FEW015 BKN023 28/27 A2982 RMK AO2 T02780267
過去の天気等 Google飛行場航空写真 Wunderground天気予報

過去48時間のMETAR

飛行場予報(TAF)
発表時間: 10/16 15:29 ChST (10/16 05:29 UTC)
予報対象時間: 16日16時 ChST ~ 17日22時 ChST
風向・風速東南東 3m/s
視程10km以上
天気現象周辺でしゅう雨
全天の4割程度の雲 雲底高度 460m
全天の8割程度の雲 雲底高度 910m
全天の8割程度の雲 雲底高度 3660m
16日18時 ChST から
風向・風速不定 2m/s
視程10km以上
天気現象周辺でしゅう雨
少しの雲 雲底高度 460m
全天の4割程度の雲 雲底高度 910m
全天の8割程度の雲 雲底高度 3960m
PGUM 160529Z 1606/1712 11006KT P6SM VCSH SCT015 BKN030 BKN120
FM160800 VRB04KT P6SM VCSH FEW015 SCT030 BKN130